Time;durP1;ratioP1;P1;durP2;ratioP2;P2;SDS_P1;SDS_P2;PMS_P1;PMS_P2;Temp;Humidity;BMP_temperature;BMP_pressure;BME280_temperature;BME280_humidity;BME280_pressure;Samples;Min_cycle;Max_cycle;Signal;HPM_P1;HPM_P2
2022/12/13 00:01:41;;;;;;;;;70.33;53.33;;;;;1.25;86.50;98050.78;5006207;28;47251;-77
2022/12/13 00:04:07;;;;;;;;;63.33;48.67;;;;;1.27;86.50;98052.47;5007132;28;45414;-77
2022/12/13 00:06:33;;;;;;;;;67.00;52.00;;;;;1.28;86.45;98043.78;5006508;28;45468;-76
2022/12/13 00:08:59;;;;;;;;;60.67;48.33;;;;;1.28;86.40;98040.34;5031217;28;45687;-76
2022/12/13 00:11:26;;;;;;;;;57.33;45.33;;;;;1.27;86.28;98028.25;5009277;28;46362;-76
2022/12/13 00:13:52;;;;;;;;;67.00;51.67;;;;;1.27;86.52;98033.44;5001744;28;45609;-76
2022/12/13 00:16:23;;;;;;;;;63.33;49.33;;;;;1.27;86.79;98046.41;5009906;28;45462;-76
2022/12/13 00:18:50;;;;;;;;;67.33;53.67;;;;;1.27;87.01;98038.63;5006987;28;45421;-76
2022/12/13 00:21:18;;;;;;;;;67.67;49.00;;;;;1.27;86.85;98034.31;5002137;28;45530;-76
2022/12/13 00:23:45;;;;;;;;;64.33;49.33;;;;;1.26;86.90;98030.00;4997861;28;45661;-76
2022/12/13 00:26:14;;;;;;;;;68.00;50.67;;;;;1.27;87.08;98034.31;4994514;28;45482;-77
2022/12/13 00:28:40;;;;;;;;;59.00;46.00;;;;;1.27;87.15;98017.88;5000710;28;45603;-76
2022/12/13 00:31:07;;;;;;;;;65.33;49.00;;;;;1.27;86.98;98025.66;4996475;28;46179;-76
2022/12/13 00:33:32;;;;;;;;;60.00;48.67;;;;;1.26;87.38;98022.19;5006040;28;45472;-76
2022/12/13 00:35:58;;;;;;;;;64.67;47.33;;;;;1.25;87.23;98017.91;5002851;28;45533;-76
2022/12/13 00:38:23;;;;;;;;;62.67;47.67;;;;;1.25;87.37;98012.69;5008025;28;45473;-76
2022/12/13 00:40:50;;;;;;;;;66.67;49.67;;;;;1.25;87.60;98023.09;5007820;28;45447;-76
2022/12/13 00:43:15;;;;;;;;;65.00;52.00;;;;;1.22;87.61;98023.16;5010184;28;45385;-76
2022/12/13 00:45:41;;;;;;;;;67.67;49.33;;;;;1.22;87.92;98017.94;5011420;28;45441;-76
2022/12/13 00:48:06;;;;;;;;;62.33;50.67;;;;;1.23;88.12;98026.59;5010544;28;45638;-76
2022/12/13 00:50:32;;;;;;;;;63.67;51.00;;;;;1.22;88.22;98027.47;5014034;28;45701;-76
2022/12/13 00:52:59;;;;;;;;;60.33;47.33;;;;;1.23;87.96;98027.44;5009744;28;45514;-76
2022/12/13 00:55:25;;;;;;;;;62.33;47.33;;;;;1.24;87.98;98029.16;5034646;28;45527;-76
2022/12/13 00:57:51;;;;;;;;;66.67;50.00;;;;;1.24;88.21;98025.72;5007073;28;45694;-76
2022/12/13 01:00:16;;;;;;;;;65.33;50.00;;;;;1.26;88.40;98027.41;5007741;28;45977;-76
2022/12/13 01:02:42;;;;;;;;;67.33;47.67;;;;;1.27;88.29;98020.47;5010444;28;45495;-76
2022/12/13 01:05:08;;;;;;;;;64.33;48.67;;;;;1.29;88.39;98010.91;5002107;28;45393;-76
2022/12/13 01:07:35;;;;;;;;;69.67;47.00;;;;;1.30;88.49;98012.63;5012911;28;45472;-76
2022/12/13 01:10:00;;;;;;;;;70.00;52.67;;;;;1.29;88.36;98010.91;5005134;28;45808;-76
2022/12/13 01:12:26;;;;;;;;;64.00;51.33;;;;;1.31;88.05;98007.41;5009077;28;45627;-76
2022/12/13 01:14:51;;;;;;;;;61.33;48.00;;;;;1.30;88.33;98008.28;5002955;28;45733;-76
2022/12/13 01:17:16;;;;;;;;;59.33;44.33;;;;;1.30;88.50;98003.09;5007136;28;45508;-76
2022/12/13 01:19:42;;;;;;;;;64.67;46.67;;;;;1.30;88.60;98003.09;5012222;28;46635;-76
2022/12/13 01:22:07;;;;;;;;;65.33;47.00;;;;;1.31;88.37;98001.34;5004552;28;45444;-76
2022/12/13 01:24:33;;;;;;;;;57.00;48.33;;;;;1.30;88.81;97991.84;5001433;28;45998;-76
2022/12/13 01:26:59;;;;;;;;;67.67;49.67;;;;;1.30;88.73;97995.28;5011527;28;45475;-77
2022/12/13 01:29:25;;;;;;;;;66.33;48.67;;;;;1.29;89.24;97985.81;5005055;28;45403;-76
2022/12/13 01:31:52;;;;;;;;;63.00;48.67;;;;;1.30;88.99;97979.72;5006621;28;45546;-76
2022/12/13 01:34:20;;;;;;;;;61.67;48.00;;;;;1.31;89.00;97983.19;5009970;28;45492;-76
2022/12/13 01:36:47;;;;;;;;;58.33;48.00;;;;;1.28;89.27;97968.50;5013902;28;45409;-76
2022/12/13 01:39:14;;;;;;;;;60.67;47.33;;;;;1.30;89.10;97968.47;5006899;28;45537;-76
2022/12/13 01:41:40;;;;;;;;;59.00;47.33;;;;;1.29;89.19;97972.81;5012281;28;45480;-76
2022/12/13 01:44:44;;;;;;;;;64.67;50.33;;;;;1.30;89.09;97974.53;5008611;28;45650;-77
2022/12/13 01:47:10;;;;;;;;;65.00;50.67;;;;;1.29;89.03;97972.81;5040188;28;45374;-76
2022/12/13 01:49:36;;;;;;;;;43.33;41.33;;;;;1.29;89.04;97969.38;5006274;28;46312;-77
2022/12/13 01:52:07;;;;;;;;;52.33;42.00;;;;;1.30;89.27;97969.34;4996546;28;45899;-77
2022/12/13 01:54:37;;;;;;;;;54.00;44.33;;;;;1.31;89.49;97965.00;5001897;28;45502;-77
2022/12/13 01:57:07;;;;;;;;;61.67;43.00;;;;;1.31;89.44;97965.84;5012102;28;45443;-76
2022/12/13 01:59:36;;;;;;;;;62.67;47.00;;;;;1.31;89.77;97963.25;5000996;28;45376;-74
2022/12/13 02:02:03;;;;;;;;;61.33;49.67;;;;;1.31;89.58;97958.06;5002580;28;45424;-77
2022/12/13 02:04:48;;;;;;;;;54.67;47.33;;;;;1.30;89.52;97964.16;5006442;28;45422;-76
2022/12/13 02:07:18;;;;;;;;;53.00;43.33;;;;;1.29;89.87;97959.84;5010020;28;45536;-77
2022/12/13 02:09:44;;;;;;;;;56.33;43.67;;;;;1.29;89.96;97964.19;5009049;28;45533;-76
2022/12/13 02:12:11;;;;;;;;;63.00;47.67;;;;;1.28;89.80;97963.31;5011407;28;45519;-76
2022/12/13 02:14:39;;;;;;;;;52.67;45.33;;;;;1.27;89.77;97951.22;5002140;28;45530;-76
2022/12/13 02:17:10;;;;;;;;;55.00;45.67;;;;;1.29;90.00;97948.59;5009741;28;45768;-76
2022/12/13 02:20:14;;;;;;;;;61.00;48.33;;;;;1.27;89.94;97955.56;5006531;28;45563;-76
2022/12/13 02:23:07;;;;;;;;;56.67;45.00;;;;;1.28;89.93;97950.34;4984023;28;45685;-76
2022/12/13 02:26:14;;;;;;;;;59.33;46.00;;;;;1.28;89.83;97939.97;5012861;28;45528;-76
2022/12/13 02:29:17;;;;;;;;;67.00;49.67;;;;;1.26;89.86;97940.88;4997785;28;45539;-77
2022/12/13 02:32:09;;;;;;;;;64.33;51.67;;;;;1.24;89.84;97937.44;4999564;28;45972;-76
2022/12/13 02:34:50;;;;;;;;;67.33;50.00;;;;;1.21;90.10;97938.38;4997931;28;45478;-76
2022/12/13 02:37:25;;;;;;;;;54.33;45.67;;;;;1.19;90.04;97924.56;5000595;28;45444;-76
2022/12/13 02:40:02;;;;;;;;;62.00;49.00;;;;;1.20;90.29;97930.63;5002413;28;45557;-76
2022/12/13 02:42:40;;;;;;;;;57.67;47.67;;;;;1.19;90.29;97923.72;5036876;28;47635;-76
2022/12/13 02:45:15;;;;;;;;;60.33;48.67;;;;;1.20;90.12;97922.81;5000160;28;45492;-76
2022/12/13 02:47:44;;;;;;;;;57.33;44.33;;;;;1.20;90.37;97912.44;5004156;28;45447;-76
2022/12/13 02:50:13;;;;;;;;;60.00;43.67;;;;;1.17;90.07;97910.81;5004971;28;45463;-76
2022/12/13 02:52:41;;;;;;;;;65.33;47.33;;;;;1.16;90.03;97903.91;5008396;28;45510;-76
2022/12/13 02:55:11;;;;;;;;;63.00;48.00;;;;;1.16;90.19;97903.91;5011854;28;45452;-76
2022/12/13 02:57:41;;;;;;;;;52.00;45.00;;;;;1.16;90.47;97898.72;5009009;28;45562;-76
2022/12/13 03:00:15;;;;;;;;;60.33;41.33;;;;;1.15;90.62;97894.41;4993541;28;45450;-74
2022/12/13 03:02:59;;;;;;;;;55.00;47.00;;;;;1.17;90.58;97896.97;4996170;28;46021;-77
2022/12/13 03:08:22;;;;;;;;;51.67;41.00;;;;;1.18;90.45;97891.72;4997705;28;45488;-76
2022/12/13 03:10:51;;;;;;;;;51.33;43.00;;;;;1.17;90.61;97900.41;5017604;28;45761;-77
2022/12/13 03:13:35;;;;;;;;;57.67;46.33;;;;;1.17;90.88;97902.16;5013086;28;46850;-77
2022/12/13 03:16:04;;;;;;;;;57.67;43.33;;;;;1.15;91.21;97901.34;5002353;28;45380;-75
2022/12/13 03:18:32;;;;;;;;;46.33;38.67;;;;;1.14;90.93;97904.81;5036935;28;45432;-77
2022/12/13 03:21:00;;;;;;;;;53.67;43.33;;;;;1.14;91.09;97905.66;5007355;28;45346;-77
2022/12/13 03:23:26;;;;;;;;;42.67;33.67;;;;;1.13;90.80;97892.72;5003350;28;47306;-77
2022/12/13 03:25:55;;;;;;;;;50.67;39.33;;;;;1.14;91.14;97894.44;5009773;28;45641;-77
2022/12/13 03:28:22;;;;;;;;;45.33;40.33;;;;;1.14;91.03;97879.72;5005699;28;45530;-76
2022/12/13 03:30:47;;;;;;;;;54.67;42.33;;;;;1.14;90.90;97887.50;5011573;28;45574;-76
2022/12/13 03:33:13;;;;;;;;;56.33;44.33;;;;;1.15;90.94;97883.16;5013064;28;46455;-76
2022/12/13 03:35:40;;;;;;;;;37.67;29.00;;;;;1.15;90.91;97876.22;4993765;28;45516;-76
2022/12/13 03:38:06;;;;;;;;;46.67;38.00;;;;;1.15;91.10;97870.19;4996197;28;45565;-76
2022/12/13 03:40:32;;;;;;;;;46.67;41.33;;;;;1.13;90.82;97865.03;4996141;28;45600;-76
2022/12/13 03:42:58;;;;;;;;;53.33;39.67;;;;;1.13;91.03;97866.78;4998684;28;46502;-76
2022/12/13 03:45:24;;;;;;;;;44.67;38.67;;;;;1.14;91.21;97863.28;4997814;28;45878;-76
2022/12/13 03:47:49;;;;;;;;;45.67;36.33;;;;;1.15;91.42;97859.81;4999652;28;45455;-77
2022/12/13 03:50:15;;;;;;;;;46.33;42.67;;;;;1.12;91.33;97850.34;5002614;28;45580;-77
2022/12/13 03:52:40;;;;;;;;;55.67;40.67;;;;;1.13;91.46;97865.03;5000677;28;46397;-76
2022/12/13 03:55:06;;;;;;;;;41.00;37.67;;;;;1.14;91.46;97853.75;5004609;28;45420;-77
2022/12/13 03:57:31;;;;;;;;;48.33;39.67;;;;;1.17;91.31;97855.44;5003640;28;45460;-77
2022/12/13 03:59:57;;;;;;;;;46.33;35.67;;;;;1.16;91.56;97858.91;4999564;28;45430;-76
2022/12/13 04:02:22;;;;;;;;;31.33;29.00;;;;;1.14;91.67;97851.16;5005889;28;46276;-76
2022/12/13 04:04:48;;;;;;;;;39.00;36.00;;;;;1.16;91.94;97849.41;5008574;28;45630;-77
2022/12/13 04:07:13;;;;;;;;;40.00;37.00;;;;;1.17;91.72;97850.25;5009842;28;45426;-76
2022/12/13 04:09:38;;;;;;;;;40.33;36.67;;;;;1.15;91.46;97852.88;5002000;28;45397;-76
2022/12/13 04:14:48;;;;;;;;;31.67;20.67;;;;;1.14;91.63;97852.91;5007456;28;45583;-77
2022/12/13 04:17:13;;;;;;;;;45.67;38.00;;;;;1.12;91.63;97849.50;5012033;28;46136;-76
2022/12/13 04:19:38;;;;;;;;;39.33;34.67;;;;;1.11;91.78;97855.56;5008938;28;45873;-76
2022/12/13 04:22:04;;;;;;;;;31.00;24.67;;;;;1.10;91.82;97846.94;5043663;28;47931;-77
2022/12/13 04:24:29;;;;;;;;;40.67;38.33;;;;;1.09;91.95;97847.81;5035767;28;45393;-77
2022/12/13 04:26:55;;;;;;;;;38.00;35.00;;;;;1.09;91.79;97849.56;5012051;28;45628;-76
2022/12/13 04:29:20;;;;;;;;;43.00;33.00;;;;;1.08;92.10;97835.72;5012594;28;45440;-76
2022/12/13 04:31:46;;;;;;;;;42.67;37.67;;;;;1.09;91.93;97832.25;5002267;28;45971;-76
2022/12/13 04:34:11;;;;;;;;;46.00;35.67;;;;;1.09;92.08;97834.84;5005235;28;45418;-77
2022/12/13 04:36:36;;;;;;;;;45.67;39.00;;;;;1.10;92.16;97828.75;5000635;28;45413;-76
2022/12/13 04:39:04;;;;;;;;;49.00;40.33;;;;;1.10;92.05;97839.13;4998530;28;45477;-76
2022/12/13 04:41:35;;;;;;;;;39.33;39.00;;;;;1.12;91.91;97837.38;5002450;28;46542;-75
2022/12/13 04:44:01;;;;;;;;;42.33;38.00;;;;;1.12;92.23;97837.38;4997445;28;45406;-76
2022/12/13 04:46:26;;;;;;;;;43.00;38.33;;;;;1.11;92.25;97834.81;5004492;28;45378;-77
2022/12/13 04:48:52;;;;;;;;;41.00;31.67;;;;;1.10;92.16;97836.53;4998793;28;45497;-76
2022/12/13 04:51:17;;;;;;;;;35.33;26.33;;;;;1.08;91.99;97832.28;5006913;28;45677;-76
2022/12/13 04:53:42;;;;;;;;;27.33;19.33;;;;;1.09;92.34;97836.59;5000998;28;45467;-76
2022/12/13 04:56:08;;;;;;;;;41.33;33.33;;;;;1.07;92.14;97828.81;5009022;28;45405;-77
2022/12/13 04:58:33;;;;;;;;;45.33;32.67;;;;;1.07;92.33;97835.75;5001775;28;45513;-77
2022/12/13 05:00:59;;;;;;;;;31.67;27.33;;;;;1.07;92.26;97844.41;5009480;28;45522;-76
2022/12/13 05:03:24;;;;;;;;;45.00;28.67;;;;;1.08;92.30;97840.06;5009273;28;45516;-77
2022/12/13 05:05:50;;;;;;;;;39.00;31.00;;;;;1.09;92.36;97845.22;5008395;28;45503;-77
2022/12/13 05:08:15;;;;;;;;;35.67;28.00;;;;;1.09;92.28;97836.59;4995200;28;45599;-76
2022/12/13 05:10:41;;;;;;;;;35.00;34.00;;;;;1.09;92.26;97834.84;5012817;28;47826;-76
2022/12/13 05:13:06;;;;;;;;;42.00;31.33;;;;;1.09;92.07;97833.97;4999021;28;45471;-76
2022/12/13 05:15:33;;;;;;;;;31.67;29.33;;;;;1.09;92.17;97841.78;5009866;28;45534;-77
2022/12/13 05:18:01;;;;;;;;;35.00;27.00;;;;;1.10;92.23;97849.53;5021841;28;45553;-76
2022/12/13 05:20:27;;;;;;;;;33.00;30.33;;;;;1.10;91.89;97840.88;5010605;28;46574;-77
2022/12/13 05:22:56;;;;;;;;;34.00;29.00;;;;;1.10;92.05;97839.13;5009335;28;45517;-76
2022/12/13 05:25:22;;;;;;;;;40.00;30.67;;;;;1.11;92.00;97840.00;5009086;28;45515;-76
2022/12/13 05:27:48;;;;;;;;;34.67;27.00;;;;;1.11;92.16;97846.03;5010530;28;45584;-76
2022/12/13 05:30:14;;;;;;;;;29.00;26.00;;;;;1.11;91.99;97847.78;5011534;28;45681;-76
2022/12/13 05:32:39;;;;;;;;;36.00;27.33;;;;;1.12;91.67;97849.50;5011880;28;45390;-76
2022/12/13 05:35:05;;;;;;;;;30.33;24.00;;;;;1.13;91.99;97858.97;4997913;28;45526;-76
2022/12/13 05:37:30;;;;;;;;;31.00;28.00;;;;;1.14;91.98;97847.72;5028282;28;45497;-76
2022/12/13 05:39:56;;;;;;;;;40.00;29.00;;;;;1.13;91.96;97867.63;4999592;28;45481;-77
2022/12/13 05:42:21;;;;;;;;;29.33;24.67;;;;;1.13;91.75;97861.59;4997560;28;45366;-76
2022/12/13 05:44:47;;;;;;;;;29.67;27.67;;;;;1.13;91.92;97864.19;5000592;28;45491;-76
2022/12/13 05:47:12;;;;;;;;;38.33;31.33;;;;;1.12;91.62;97865.06;5003982;28;45605;-77
2022/12/13 05:49:37;;;;;;;;;27.00;25.33;;;;;1.11;91.76;97865.94;5013594;28;47083;-77
2022/12/13 05:52:03;;;;;;;;;25.33;24.00;;;;;1.10;92.04;97865.09;5004531;28;45365;-77
2022/12/13 05:54:28;;;;;;;;;28.67;28.67;;;;;1.10;92.10;97866.84;5006159;28;45565;-76
2022/12/13 05:56:54;;;;;;;;;33.67;28.67;;;;;1.09;91.93;97873.75;5009959;28;45424;-76
2022/12/13 05:59:19;;;;;;;;;34.33;28.33;;;;;1.09;91.99;97873.75;5007142;28;45437;-77
2022/12/13 06:01:44;;;;;;;;;35.67;33.67;;;;;1.07;92.13;97869.50;5012653;28;45468;-76
2022/12/13 06:04:11;;;;;;;;;32.67;24.67;;;;;1.08;92.36;97878.97;5003266;28;45557;-77
2022/12/13 06:06:37;;;;;;;;;27.00;25.33;;;;;1.07;92.38;97878.13;4997954;28;45347;-76
2022/12/13 06:09:02;;;;;;;;;22.00;16.00;;;;;1.07;92.12;97872.94;5001988;28;45318;-77
2022/12/13 06:11:28;;;;;;;;;26.00;21.33;;;;;1.07;91.80;97875.53;5000986;28;45450;-76
2022/12/13 06:13:53;;;;;;;;;31.67;25.33;;;;;1.07;92.00;97877.28;5001707;28;45452;-77
2022/12/13 06:16:19;;;;;;;;;31.50;24.00;;;;;1.05;92.22;97866.94;5015982;28;45469;-76
2022/12/13 06:18:45;;;;;;;;;22.33;21.00;;;;;1.04;92.28;97865.22;5005216;28;46430;-76
2022/12/13 06:21:10;;;;;;;;;30.00;26.00;;;;;1.04;92.42;97871.25;5013961;28;45769;-77
2022/12/13 06:23:36;;;;;;;;;32.67;28.00;;;;;1.05;92.28;97877.31;5002160;28;46035;-77
2022/12/13 06:26:05;;;;;;;;;30.00;24.33;;;;;1.05;92.17;97872.97;5002621;28;45496;-77
2022/12/13 06:28:31;;;;;;;;;25.00;21.00;;;;;1.05;92.40;97867.78;5037812;28;47011;-77
2022/12/13 06:31:02;;;;;;;;;24.33;21.00;;;;;1.06;92.32;97879.03;5004218;28;45370;-77
2022/12/13 06:33:27;;;;;;;;;28.00;25.33;;;;;1.05;92.32;97887.69;5006580;28;45410;-78
2022/12/13 06:35:57;;;;;;;;;31.33;25.67;;;;;1.04;92.10;97881.66;5001107;28;45596;-77
2022/12/13 06:38:24;;;;;;;;;31.33;21.33;;;;;1.06;91.94;97902.38;5001529;28;45596;-77
2022/12/13 06:40:49;;;;;;;;;26.00;24.67;;;;;1.06;92.21;97897.19;4993120;28;45340;-77
2022/12/13 06:43:15;;;;;;;;;23.33;22.67;;;;;1.07;91.93;97906.69;4998598;28;45520;-78
2022/12/13 06:45:40;;;;;;;;;27.67;24.33;;;;;1.07;92.49;97909.28;5038928;28;45421;-76
2022/12/13 06:48:06;;;;;;;;;26.67;24.67;;;;;1.07;92.22;97903.22;5039777;28;47928;-75
2022/12/13 06:50:31;;;;;;;;;22.33;17.67;;;;;1.07;92.10;97904.09;4997319;28;45430;-76
2022/12/13 06:52:57;;;;;;;;;22.67;20.00;;;;;1.09;92.27;97914.44;5001474;28;45369;-77
2022/12/13 06:55:22;;;;;;;;;31.67;24.00;;;;;1.09;92.09;97914.44;5015653;28;45465;-76
2022/12/13 06:57:48;;;;;;;;;29.67;26.67;;;;;1.08;92.25;97910.13;4997795;28;46429;-76
2022/12/13 07:00:14;;;;;;;;;18.67;15.67;;;;;1.10;92.25;97916.13;4997107;28;45425;-75
2022/12/13 07:02:42;;;;;;;;;31.33;28.33;;;;;1.10;91.90;97921.34;5001324;28;45545;-76
2022/12/13 07:05:08;;;;;;;;;32.33;26.33;;;;;1.12;92.38;97923.00;5006518;28;45337;-75
2022/12/13 07:07:34;;;;;;;;;27.67;24.67;;;;;1.14;92.18;97929.03;5009349;28;45334;-77
2022/12/13 07:09:59;;;;;;;;;30.33;26.33;;;;;1.14;92.13;97935.97;5004171;28;45546;-76
2022/12/13 07:12:25;;;;;;;;;24.33;22.00;;;;;1.16;92.34;97941.97;4999235;28;45331;-77
2022/12/13 07:14:50;;;;;;;;;34.33;26.33;;;;;1.16;92.06;97932.44;4998157;28;45588;-76
2022/12/13 07:17:16;;;;;;;;;33.67;29.33;;;;;1.16;92.15;97934.19;5030164;28;45442;-75
2022/12/13 07:19:42;;;;;;;;;36.00;30.67;;;;;1.15;92.10;97941.13;5001207;28;45707;-76
2022/12/13 07:22:07;;;;;;;;;31.00;27.67;;;;;1.15;92.27;97950.66;5000283;28;45490;-77
2022/12/13 07:24:36;;;;;;;;;34.33;25.33;;;;;1.16;92.34;97949.75;4997531;28;45421;-77
2022/12/13 07:27:02;;;;;;;;;33.67;25.00;;;;;1.17;92.32;97957.53;5003470;28;45577;-76
2022/12/13 07:29:28;;;;;;;;;22.67;20.00;;;;;1.17;92.30;97956.66;5001818;28;45539;-77
2022/12/13 07:31:53;;;;;;;;;30.33;28.00;;;;;1.17;92.53;97954.91;5037856;28;45421;-77
2022/12/13 07:34:19;;;;;;;;;34.00;25.00;;;;;1.20;92.81;97959.16;5007999;28;45524;-77
2022/12/13 07:36:44;;;;;;;;;34.33;30.00;;;;;1.22;92.53;97963.44;5007394;28;45672;-77
2022/12/13 07:39:10;;;;;;;;;40.00;33.00;;;;;1.22;92.54;97963.44;5009079;28;45363;-76
2022/12/13 07:41:35;;;;;;;;;31.33;25.67;;;;;1.22;92.48;97963.44;5026567;28;45355;-77
2022/12/13 07:44:01;;;;;;;;;34.00;28.67;;;;;1.23;92.66;97977.28;5005256;28;45510;-77
2022/12/13 07:46:26;;;;;;;;;26.67;25.67;;;;;1.24;92.43;97973.78;4996690;28;48666;-77
2022/12/13 07:48:51;;;;;;;;;35.33;28.33;;;;;1.24;92.40;97974.66;4997998;28;45392;-77
2022/12/13 07:51:17;;;;;;;;;37.00;28.00;;;;;1.26;92.36;97987.59;5004324;28;45404;-77
2022/12/13 07:53:42;;;;;;;;;42.00;31.00;;;;;1.29;92.49;97993.59;4997179;28;45572;-77
2022/12/13 07:56:10;;;;;;;;;33.33;30.67;;;;;1.30;92.28;97999.63;5003469;28;45541;-77
2022/12/13 07:58:36;;;;;;;;;31.67;27.00;;;;;1.32;92.55;98003.91;5000659;28;45570;-77
2022/12/13 08:01:07;;;;;;;;;28.00;20.67;;;;;1.36;92.57;97994.28;5006240;28;45520;-77
2022/12/13 08:03:33;;;;;;;;;28.67;24.33;;;;;1.36;92.45;98004.69;5001229;28;45349;-76
2022/12/13 08:05:59;;;;;;;;;35.67;30.00;;;;;1.37;92.33;98002.06;5004072;28;45558;-77
2022/12/13 08:08:25;;;;;;;;;40.67;37.00;;;;;1.39;92.40;97999.41;5001416;28;45599;-78
2022/12/13 08:10:50;;;;;;;;;37.00;33.33;;;;;1.39;92.67;98002.88;5010258;28;45512;-75
2022/12/13 08:13:16;;;;;;;;;38.67;34.33;;;;;1.42;92.16;98001.09;5010480;28;45536;-76
2022/12/13 08:15:41;;;;;;;;;40.33;37.00;;;;;1.42;92.35;98004.56;5010978;28;45440;-76
2022/12/13 08:18:06;;;;;;;;;39.00;31.33;;;;;1.44;92.69;98007.13;5011504;28;45532;-76
2022/12/13 08:20:32;;;;;;;;;40.00;33.33;;;;;1.46;92.17;98015.75;4997316;28;45496;-76
2022/12/13 08:22:58;;;;;;;;;39.00;25.33;;;;;1.46;92.24;98015.75;4999374;28;45417;-76
2022/12/13 08:25:24;;;;;;;;;27.00;18.00;;;;;1.48;92.44;98017.41;5003173;28;46367;-76
2022/12/13 08:27:49;;;;;;;;;33.33;27.33;;;;;1.49;92.17;98024.31;4999474;28;45752;-77
2022/12/13 08:30:15;;;;;;;;;30.00;24.67;;;;;1.52;92.20;98029.44;5032173;28;45514;-77
2022/12/13 08:32:41;;;;;;;;;36.00;30.33;;;;;1.53;92.05;98044.13;5006203;28;45507;-76
2022/12/13 08:35:06;;;;;;;;;39.00;31.33;;;;;1.54;91.96;98035.44;5012882;28;46195;-77
2022/12/13 08:37:32;;;;;;;;;33.67;32.00;;;;;1.56;92.02;98036.28;5005948;28;45397;-76
2022/12/13 08:39:57;;;;;;;;;49.00;32.33;;;;;1.57;92.21;98044.91;5014102;28;45354;-76
2022/12/13 08:42:24;;;;;;;;;34.67;27.33;;;;;1.57;91.72;98037.97;5015141;28;45484;-76
2022/12/13 08:44:51;;;;;;;;;16.67;14.67;;;;;1.57;92.08;98037.97;4997550;28;45475;-76
2022/12/13 08:47:20;;;;;;;;;38.33;36.67;;;;;1.58;92.13;98049.22;4996967;28;45400;-77
2022/12/13 08:49:46;;;;;;;;;40.33;31.00;;;;;1.57;92.03;98050.97;5035962;28;45505;-77
2022/12/13 08:52:11;;;;;;;;;41.33;32.00;;;;;1.60;92.08;98056.09;5007366;28;45538;-76
2022/12/13 08:54:36;;;;;;;;;33.33;24.67;;;;;1.60;91.83;98050.91;5001288;28;46730;-76
2022/12/13 08:57:02;;;;;;;;;41.00;33.00;;;;;1.64;92.08;98057.75;5007761;28;45314;-77
2022/12/13 08:59:27;;;;;;;;;43.33;34.00;;;;;1.65;91.67;98051.66;5010007;28;45704;-77
2022/12/13 09:01:53;;;;;;;;;43.00;35.67;;;;;1.67;91.26;98068.09;5002912;28;45500;-77
2022/12/13 09:04:18;;;;;;;;;42.00;33.67;;;;;1.67;91.61;98055.09;5006195;28;45543;-76
2022/12/13 09:06:44;;;;;;;;;40.67;35.33;;;;;1.69;91.49;98045.50;5010458;28;45445;-77
2022/12/13 09:09:10;;;;;;;;;40.33;37.33;;;;;1.71;91.11;98061.91;5008158;28;45468;-76
2022/12/13 09:11:38;;;;;;;;;49.67;40.00;;;;;1.73;91.43;98074.88;5026986;28;45489;-77
2022/12/13 09:14:10;;;;;;;;;47.67;39.67;;;;;1.75;91.13;98070.50;5007491;28;45921;-77
2022/12/13 09:16:35;;;;;;;;;45.67;35.67;;;;;1.76;90.98;98064.41;5015170;28;45507;-77
2022/12/13 09:19:14;;;;;;;;;36.00;27.00;;;;;1.76;91.24;98072.22;4998247;28;45520;-77
2022/12/13 09:21:39;;;;;;;;;36.00;33.67;;;;;1.79;91.19;98072.16;4997646;28;45422;-77
2022/12/13 09:24:04;;;;;;;;;36.00;29.00;;;;;1.82;91.46;98071.22;5000349;28;46894;-76
2022/12/13 09:26:30;;;;;;;;;45.33;38.33;;;;;1.87;91.33;98088.41;4999736;28;45332;-77
2022/12/13 09:28:58;;;;;;;;;47.33;41.33;;;;;1.90;90.98;98077.09;5003800;28;45528;-76
2022/12/13 09:31:24;;;;;;;;;45.33;39.00;;;;;1.92;90.69;98070.97;5002328;28;45468;-76
2022/12/13 09:33:50;;;;;;;;;33.67;30.33;;;;;1.97;90.67;98070.88;5006570;28;47617;-76
2022/12/13 09:36:18;;;;;;;;;49.00;37.00;;;;;2.03;90.27;98086.31;5004836;28;45892;-76
2022/12/13 09:38:44;;;;;;;;;38.67;34.00;;;;;2.05;90.18;98089.75;5010309;28;45512;-75
2022/12/13 09:41:12;;;;;;;;;52.00;39.33;;;;;2.10;90.32;98096.56;5001032;28;45463;-76
2022/12/13 09:43:39;;;;;;;;;42.33;39.67;;;;;2.16;90.27;98094.72;5005369;28;46414;-76
2022/12/13 09:46:10;;;;;;;;;49.67;41.67;;;;;2.21;89.86;98105.84;4999781;28;45473;-76
2022/12/13 09:48:36;;;;;;;;;41.67;37.67;;;;;2.25;90.43;98095.34;5011935;28;45342;-76
2022/12/13 09:51:02;;;;;;;;;43.33;36.67;;;;;2.31;89.51;98100.41;5001827;28;45505;-76
2022/12/13 09:53:28;;;;;;;;;40.67;34.67;;;;;2.36;89.64;98097.69;4999897;28;46434;-77
2022/12/13 09:55:54;;;;;;;;;58.33;40.33;;;;;2.39;88.97;98103.66;5005075;28;45452;-76
2022/12/13 09:58:26;;;;;;;;;48.33;38.33;;;;;2.42;89.05;98107.94;5002105;28;45594;-76
2022/12/13 10:00:54;;;;;;;;;41.33;39.00;;;;;2.41;88.94;98099.28;5006871;28;45373;-75
2022/12/13 10:03:21;;;;;;;;;40.67;37.33;;;;;2.40;88.71;98087.19;5014017;28;45421;-76
2022/12/13 10:06:11;;;;;;;;;47.33;37.67;;;;;2.35;88.84;98090.75;5014006;28;45462;-77
2022/12/13 10:08:42;;;;;;;;;46.33;39.33;;;;;2.37;89.26;98091.59;5006881;28;45457;-76
2022/12/13 10:11:12;;;;;;;;;44.33;34.00;;;;;2.37;88.95;98092.44;5000852;28;45393;-77
2022/12/13 10:13:42;;;;;;;;;36.33;34.00;;;;;2.34;88.98;98087.34;5005265;28;47873;-77
2022/12/13 10:16:27;;;;;;;;;40.67;36.33;;;;;2.34;88.88;98081.28;5012896;28;45444;-76
2022/12/13 10:18:53;;;;;;;;;46.67;36.00;;;;;2.32;88.93;98086.53;5001391;28;45446;-77
2022/12/13 10:21:27;;;;;;;;;44.33;40.00;;;;;2.34;88.88;98089.09;5003343;28;45357;-75
2022/12/13 10:23:53;;;;;;;;;43.67;36.67;;;;;2.33;89.08;98082.19;5013979;28;46571;-75
2022/12/13 10:26:18;;;;;;;;;43.33;34.00;;;;;2.34;88.90;98076.94;4997414;28;45359;-75
2022/12/13 10:28:44;;;;;;;;;45.00;35.33;;;;;2.37;88.89;98076.84;5004257;28;45421;-75
2022/12/13 10:31:19;;;;;;;;;32.00;29.00;;;;;2.38;88.48;98073.34;5006809;28;45441;-77
2022/12/13 10:33:54;;;;;;;;;42.00;37.00;;;;;2.36;88.37;98072.53;4995424;28;45417;-76
2022/12/13 10:36:37;;;;;;;;;30.00;24.67;;;;;2.36;88.17;98059.53;5002875;28;45499;-76
2022/12/13 10:39:03;;;;;;;;;50.33;39.33;;;;;2.37;88.37;98063.84;5004760;28;45594;-76
2022/12/13 10:41:40;;;;;;;;;40.33;34.00;;;;;2.40;88.43;98065.50;5010572;28;45421;-76
2022/12/13 10:44:11;;;;;;;;;34.33;30.33;;;;;2.41;88.84;98055.06;5007831;28;45696;-76
2022/12/13 10:46:41;;;;;;;;;43.00;38.00;;;;;2.45;88.70;98067.13;5002688;28;45516;-76
2022/12/13 10:49:17;;;;;;;;;45.67;33.67;;;;;2.48;88.58;98062.75;5001120;28;45362;-76
2022/12/13 10:51:44;;;;;;;;;50.67;40.00;;;;;2.45;88.50;98069.72;4995782;28;45489;-76
2022/12/13 10:54:24;;;;;;;;;53.00;39.33;;;;;2.48;88.83;98062.75;4997177;28;45440;-76
2022/12/13 10:56:52;;;;;;;;;40.67;35.33;;;;;2.53;88.56;98072.13;5013257;28;45306;-76
2022/12/13 10:59:29;;;;;;;;;35.00;34.67;;;;;2.56;88.34;98064.25;5005119;28;45526;-76
2022/12/13 11:01:55;;;;;;;;;43.33;36.00;;;;;2.59;88.08;98068.53;5002482;28;45530;-76
2022/12/13 11:04:33;;;;;;;;;45.00;38.67;;;;;2.60;88.08;98067.63;5036076;28;47969;-77
2022/12/13 11:07:23;;;;;;;;;43.67;38.00;;;;;2.60;87.89;98075.44;5006983;28;45440;-76
2022/12/13 11:09:49;;;;;;;;;46.33;34.00;;;;;2.62;87.79;98073.66;5002690;28;45514;-76
2022/12/13 11:12:19;;;;;;;;;38.00;35.67;;;;;2.62;88.37;98074.50;5008737;28;45507;-76
2022/12/13 11:15:05;;;;;;;;;45.33;32.33;;;;;2.65;87.90;98076.19;5007186;28;46683;-76
2022/12/13 11:17:34;;;;;;;;;46.33;38.00;;;;;2.69;87.85;98077.78;4999421;28;45419;-77
2022/12/13 11:20:04;;;;;;;;;40.00;35.00;;;;;2.69;87.77;98083.00;4995386;28;45436;-77
2022/12/13 11:22:33;;;;;;;;;41.00;31.67;;;;;2.69;87.71;98080.38;5012785;28;45450;-77
2022/12/13 11:25:07;;;;;;;;;53.00;42.33;;;;;2.71;87.63;98092.47;4998931;28;45523;-77
2022/12/13 11:27:47;;;;;;;;;43.00;38.00;;;;;2.71;87.43;98084.66;4997363;28;45647;-77
2022/12/13 11:31:00;;;;;;;;;36.67;31.33;;;;;2.73;87.25;98072.47;5003929;28;45448;-77
2022/12/13 11:33:38;;;;;;;;;38.33;33.67;;;;;2.76;87.24;98076.75;4986173;28;45539;-78
2022/12/13 11:36:43;;;;;;;;;48.67;39.33;;;;;2.76;86.97;98081.94;5000302;28;45471;-77